Time;durP1;ratioP1;P1;durP2;ratioP2;P2;SDS_P1;SDS_P2;PMS_P1;PMS_P2;Temp;Humidity;BMP_temperature;BMP_pressure;BME280_temperature;BME280_humidity;BME280_pressure;Samples;Min_cycle;Max_cycle;Signal;HPM_P1;HPM_P2
2022/02/23 00:01:02;;;;;;;7.68;1.60;;;6.00;99.90;;;;;;4863597;29;20033;-91
2022/02/23 00:03:28;;;;;;;10.32;1.60;;;6.00;99.90;;;;;;4862716;29;20124;-91
2022/02/23 00:05:54;;;;;;;12.80;2.38;;;6.00;99.90;;;;;;4863951;29;20021;-92
2022/02/23 00:08:20;;;;;;;6.35;1.30;;;6.00;99.90;;;;;;4863517;29;20089;-91
2022/02/23 00:10:47;;;;;;;9.38;1.88;;;6.00;99.90;;;;;;4865179;29;20490;-91
2022/02/23 00:13:12;;;;;;;7.53;1.02;;;5.90;99.90;;;;;;4864104;29;20124;-94
2022/02/23 00:15:38;;;;;;;10.65;1.67;;;5.90;99.90;;;;;;4864332;29;20065;-91
2022/02/23 00:18:10;;;;;;;9.02;1.98;;;5.80;99.90;;;;;;4864111;29;20030;-91
2022/02/23 00:20:36;;;;;;;5.90;1.40;;;5.80;99.90;;;;;;4865236;29;20033;-92
2022/02/23 00:23:02;;;;;;;8.57;1.38;;;5.80;99.90;;;;;;4864553;29;20096;-92
2022/02/23 00:25:27;;;;;;;7.28;1.52;;;5.80;99.90;;;;;;4873035;29;20086;-93
2022/02/23 00:27:53;;;;;;;7.78;1.48;;;5.80;99.90;;;;;;4874141;29;20089;-93
2022/02/23 00:30:19;;;;;;;11.93;2.00;;;5.70;99.90;;;;;;4875348;29;20033;-93
2022/02/23 00:32:44;;;;;;;8.93;1.60;;;5.70;99.90;;;;;;4874393;29;20072;-92
2022/02/23 00:35:10;;;;;;;10.75;1.60;;;5.70;99.90;;;;;;4876700;29;20030;-90
2022/02/23 00:37:36;;;;;;;5.68;1.15;;;5.60;99.90;;;;;;4869304;29;20033;-91
2022/02/23 00:40:02;;;;;;;5.93;1.02;;;5.60;99.90;;;;;;4865894;29;20033;-91
2022/02/23 00:42:27;;;;;;;10.60;2.33;;;5.60;99.90;;;;;;4865681;29;20033;-93
2022/02/23 00:44:53;;;;;;;11.25;1.75;;;5.60;99.90;;;;;;4865934;29;20041;-91
2022/02/23 00:47:19;;;;;;;9.70;1.60;;;5.50;99.90;;;;;;4864443;29;20033;-91
2022/02/23 00:49:44;;;;;;;9.55;1.70;;;5.50;99.90;;;;;;4864372;29;20133;-92
2022/02/23 00:52:10;;;;;;;9.90;1.92;;;5.50;99.90;;;;;;4864330;29;20098;-91
2022/02/23 00:54:36;;;;;;;17.13;2.05;;;5.50;99.90;;;;;;4864320;29;20038;-93
2022/02/23 00:57:03;;;;;;;13.40;1.90;;;5.40;99.90;;;;;;4864464;29;20078;-92
2022/02/23 00:59:28;;;;;;;13.95;1.95;;;5.40;99.90;;;;;;4865674;29;20049;-93
2022/02/23 01:01:54;;;;;;;13.73;2.40;;;5.40;99.90;;;;;;4864302;29;20044;-93
2022/02/23 01:04:20;;;;;;;15.52;2.38;;;5.30;99.90;;;;;;4864137;29;20085;-92
2022/02/23 01:06:46;;;;;;;28.20;4.97;;;5.40;99.90;;;;;;4863945;29;20026;-92
2022/02/23 01:09:11;;;;;;;10.07;2.22;;;5.30;99.90;;;;;;4863464;29;20029;-93
2022/02/23 01:11:37;;;;;;;6.45;1.23;;;5.30;99.90;;;;;;4862995;29;20109;-91
2022/02/23 01:14:03;;;;;;;11.38;2.00;;;5.40;99.90;;;;;;4871997;29;20475;-93
2022/02/23 01:16:29;;;;;;;14.93;1.88;;;5.40;99.90;;;;;;4881063;29;20093;-91
2022/02/23 01:18:55;;;;;;;14.73;1.67;;;5.40;99.90;;;;;;4877987;29;20049;-92
2022/02/23 01:21:20;;;;;;;11.60;2.25;;;5.40;99.90;;;;;;4874003;29;20030;-91
2022/02/23 01:23:46;;;;;;;8.07;1.42;;;5.30;99.90;;;;;;4871912;29;20033;-92
2022/02/23 01:26:12;;;;;;;9.30;1.73;;;5.30;99.90;;;;;;4869619;29;20021;-92
2022/02/23 01:28:37;;;;;;;9.27;1.75;;;5.30;99.90;;;;;;4867429;29;20026;-92
2022/02/23 01:31:03;;;;;;;11.27;3.25;;;5.30;99.90;;;;;;4863358;29;20464;-92
2022/02/23 01:33:29;;;;;;;11.60;1.83;;;5.30;99.90;;;;;;4862935;29;20029;-91
2022/02/23 01:35:55;;;;;;;7.28;1.70;;;5.30;99.90;;;;;;4862695;29;20022;-94
2022/02/23 01:38:20;;;;;;;10.70;2.00;;;5.30;99.90;;;;;;4862818;29;20033;-92
2022/02/23 01:40:46;;;;;;;12.27;2.55;;;5.30;99.90;;;;;;4862785;29;20036;-92
2022/02/23 01:43:15;;;;;;;14.15;2.15;;;5.30;99.90;;;;;;4862428;29;20042;-92
2022/02/23 01:45:41;;;;;;;9.95;1.98;;;5.30;99.90;;;;;;4862695;29;20037;-90
2022/02/23 01:48:06;;;;;;;16.02;1.60;;;5.20;99.90;;;;;;4863004;29;20029;-91
2022/02/23 01:50:32;;;;;;;7.85;1.20;;;5.20;99.90;;;;;;4863258;29;20021;-92
2022/02/23 01:52:58;;;;;;;5.82;1.10;;;5.20;99.90;;;;;;4862649;29;20577;-92
2022/02/23 01:55:24;;;;;;;8.98;1.40;;;5.20;99.90;;;;;;4862639;29;20100;-92
2022/02/23 01:57:50;;;;;;;5.72;1.35;;;5.20;99.90;;;;;;4863355;29;20024;-90
2022/02/23 02:00:17;;;;;;;8.73;1.73;;;5.20;99.90;;;;;;4862677;29;20082;-92
2022/02/23 02:02:45;;;;;;;7.20;1.10;;;5.20;99.90;;;;;;4862315;29;20037;-91
2022/02/23 02:05:11;;;;;;;8.27;1.70;;;5.20;99.90;;;;;;4862335;29;20120;-91
2022/02/23 02:07:38;;;;;;;8.77;1.80;;;5.10;99.90;;;;;;4862519;29;20038;-91
2022/02/23 02:10:05;;;;;;;7.60;1.27;;;5.10;99.90;;;;;;4862672;29;20021;-91
2022/02/23 02:12:30;;;;;;;11.82;2.25;;;5.10;99.90;;;;;;4862633;29;20022;-91
2022/02/23 02:14:59;;;;;;;14.48;1.98;;;5.10;99.90;;;;;;4862677;29;20193;-91
2022/02/23 02:17:25;;;;;;;10.15;1.38;;;5.10;99.90;;;;;;4862449;29;20033;-91
2022/02/23 02:19:51;;;;;;;8.65;1.58;;;5.10;99.90;;;;;;4861996;29;20026;-91
2022/02/23 02:22:16;;;;;;;10.00;1.08;;;5.10;99.90;;;;;;4862497;29;20502;-91
2022/02/23 02:24:42;;;;;;;14.32;1.83;;;5.10;99.90;;;;;;4862272;29;20029;-92
2022/02/23 02:27:11;;;;;;;10.60;1.35;;;5.00;99.90;;;;;;4862350;29;20021;-90
2022/02/23 02:29:38;;;;;;;10.07;1.65;;;5.10;99.90;;;;;;4862399;29;20040;-91
2022/02/23 02:32:05;;;;;;;12.13;1.27;;;5.00;99.90;;;;;;4862274;29;20034;-90
2022/02/23 02:34:30;;;;;;;11.00;1.20;;;5.00;99.90;;;;;;4860285;29;20124;-91
2022/02/23 02:36:56;;;;;;;5.75;1.38;;;4.90;99.90;;;;;;4861205;29;20068;-91
2022/02/23 02:39:25;;;;;;;9.52;1.50;;;4.90;99.90;;;;;;4861650;29;20022;-91
2022/02/23 02:41:52;;;;;;;9.55;2.50;;;4.90;99.90;;;;;;4861313;29;20022;-92
2022/02/23 02:44:18;;;;;;;8.25;1.30;;;4.90;99.90;;;;;;4861083;29;20041;-93
2022/02/23 02:46:45;;;;;;;6.50;1.45;;;4.90;99.90;;;;;;4861221;29;20025;-91
2022/02/23 02:49:11;;;;;;;10.88;1.48;;;4.90;99.90;;;;;;4861035;29;20070;-92
2022/02/23 02:51:37;;;;;;;8.70;1.33;;;4.90;99.90;;;;;;4860695;29;20072;-91
2022/02/23 02:54:04;;;;;;;13.80;1.95;;;4.90;99.90;;;;;;4860192;29;20531;-92
2022/02/23 02:56:29;;;;;;;7.40;1.55;;;4.90;99.90;;;;;;4860264;29;20467;-92
2022/02/23 02:58:55;;;;;;;8.07;1.50;;;5.00;99.90;;;;;;4860283;29;20021;-91
2022/02/23 03:01:26;;;;;;;8.05;1.42;;;5.00;99.90;;;;;;4860321;29;20482;-91
2022/02/23 03:03:52;;;;;;;;;;;5.00;99.90;;;;;;4845293;29;20487;-92
2022/02/23 03:06:18;;;;;;;9.00;1.75;;;5.00;99.90;;;;;;4860411;29;20384;-92
2022/02/23 03:08:46;;;;;;;4.85;0.90;;;5.10;99.90;;;;;;4860107;29;20070;-90
2022/02/23 03:11:12;;;;;;;7.05;1.30;;;5.10;99.90;;;;;;4859078;29;20061;-92
2022/02/23 03:13:38;;;;;;;13.57;2.05;;;5.10;99.90;;;;;;4860917;29;20050;-92
2022/02/23 03:16:05;;;;;;;7.45;1.33;;;5.10;99.90;;;;;;4861327;29;20021;-91
2022/02/23 03:18:31;;;;;;;15.80;1.95;;;5.10;99.90;;;;;;4860912;29;20502;-90
2022/02/23 03:20:57;;;;;;;10.90;1.70;;;5.10;99.90;;;;;;4860819;29;20056;-92
2022/02/23 03:23:23;;;;;;;12.02;1.45;;;5.10;99.90;;;;;;4869595;29;20033;-92
2022/02/23 03:25:48;;;;;;;6.85;1.98;;;5.10;99.90;;;;;;4872487;29;20030;-91
2022/02/23 03:28:14;;;;;;;13.02;1.75;;;5.10;99.90;;;;;;4861085;29;20026;-92
2022/02/23 03:30:40;;;;;;;9.48;1.45;;;5.10;99.90;;;;;;4861178;29;20387;-91
2022/02/23 03:33:06;;;;;;;10.32;1.95;;;5.10;99.90;;;;;;4864291;29;20029;-92
2022/02/23 03:35:32;;;;;;;8.70;1.95;;;5.10;99.90;;;;;;4865633;29;20129;-92
2022/02/23 03:37:58;;;;;;;12.98;1.95;;;5.10;99.90;;;;;;4864040;29;20476;-91
2022/02/23 03:40:25;;;;;;;9.90;1.50;;;5.10;99.90;;;;;;4864671;29;20052;-92
2022/02/23 03:42:52;;;;;;;5.30;0.80;;;5.00;99.90;;;;;;4900294;29;20037;-91
2022/02/23 03:45:19;;;;;;;12.98;1.77;;;5.00;99.90;;;;;;4863770;29;20029;-91
2022/02/23 03:47:45;;;;;;;9.60;1.48;;;5.10;99.90;;;;;;4863838;29;20115;-91
2022/02/23 03:50:11;;;;;;;8.90;1.83;;;5.10;99.90;;;;;;4863919;29;20484;-90
2022/02/23 03:52:37;;;;;;;9.98;2.20;;;5.00;99.90;;;;;;4863922;29;20050;-91
2022/02/23 03:55:04;;;;;;;12.35;1.95;;;5.00;99.90;;;;;;4863782;29;20120;-91
2022/02/23 03:57:30;;;;;;;12.07;1.90;;;5.00;99.90;;;;;;4861182;29;20359;-92
2022/02/23 03:59:56;;;;;;;6.78;1.67;;;5.00;99.90;;;;;;4863527;29;20117;-91
2022/02/23 04:02:22;;;;;;;12.90;1.40;;;5.00;99.90;;;;;;4863748;29;20034;-90
2022/02/23 04:04:47;;;;;;;8.85;1.90;;;5.00;99.90;;;;;;4863596;29;20030;-90
2022/02/23 04:07:13;;;;;;;11.60;2.30;;;4.90;99.90;;;;;;4863318;29;20038;-90
2022/02/23 04:09:39;;;;;;;10.50;1.65;;;4.90;99.90;;;;;;4864100;29;20037;-91
2022/02/23 04:12:05;;;;;;;9.20;1.77;;;4.90;99.90;;;;;;4863458;29;20032;-91
2022/02/23 04:14:30;;;;;;;16.40;3.35;;;4.90;99.90;;;;;;4860610;29;20029;-90
2022/02/23 04:16:56;;;;;;;14.88;2.17;;;4.90;99.90;;;;;;4863338;29;20073;-92
2022/02/23 04:19:22;;;;;;;15.30;2.63;;;4.90;99.90;;;;;;4863336;29;20026;-92
2022/02/23 04:21:47;;;;;;;13.32;1.98;;;4.90;99.90;;;;;;4863124;29;20133;-93
2022/02/23 04:24:13;;;;;;;12.68;2.10;;;4.80;99.90;;;;;;4863041;29;20094;-92
2022/02/23 04:26:39;;;;;;;21.52;2.70;;;4.90;99.90;;;;;;4863468;29;20033;-93
2022/02/23 04:29:05;;;;;;;11.00;2.67;;;4.80;99.90;;;;;;4863290;29;20085;-93
2022/02/23 04:31:32;;;;;;;12.05;1.38;;;4.80;99.90;;;;;;4860994;29;20029;-93
2022/02/23 04:33:59;;;;;;;16.58;2.33;;;4.80;99.90;;;;;;4863557;29;20060;-92
2022/02/23 04:36:25;;;;;;;13.63;2.05;;;4.90;99.90;;;;;;4863057;29;20476;-92
2022/02/23 04:38:51;;;;;;;14.65;2.10;;;4.90;99.90;;;;;;4878913;29;20093;-92
2022/02/23 04:41:17;;;;;;;19.00;2.00;;;4.90;99.90;;;;;;4878978;29;20045;-90
2022/02/23 04:43:43;;;;;;;16.38;2.67;;;4.80;99.90;;;;;;4875195;29;20034;-91
2022/02/23 04:46:13;;;;;;;9.95;1.25;;;4.90;99.90;;;;;;4874000;29;20025;-91
2022/02/23 04:48:43;;;;;;;14.90;1.83;;;4.80;99.90;;;;;;4871490;29;20029;-91
2022/02/23 04:51:09;;;;;;;14.82;2.47;;;4.80;99.90;;;;;;4868860;29;20038;-90
2022/02/23 04:53:35;;;;;;;12.00;2.03;;;4.90;99.90;;;;;;4866454;29;20035;-91
2022/02/23 04:56:03;;;;;;;21.73;1.90;;;4.80;99.90;;;;;;4861220;29;20034;-90
2022/02/23 04:58:28;;;;;;;11.00;1.08;;;4.80;99.90;;;;;;4862616;29;20094;-92
2022/02/23 05:00:54;;;;;;;11.10;1.67;;;4.80;99.90;;;;;;4862664;29;20021;-92
2022/02/23 05:03:20;;;;;;;13.77;2.10;;;4.90;99.90;;;;;;4862798;29;20044;-92
2022/02/23 05:05:48;;;;;;;10.65;2.70;;;4.90;99.90;;;;;;4862769;29;20089;-92
2022/02/23 05:08:13;;;;;;;8.90;1.35;;;4.90;99.90;;;;;;4862602;29;20037;-91
2022/02/23 05:10:39;;;;;;;12.20;1.80;;;5.00;99.90;;;;;;4862252;29;20025;-92
2022/02/23 05:13:05;;;;;;;9.38;1.42;;;5.00;99.90;;;;;;4862650;29;20147;-91
2022/02/23 05:15:31;;;;;;;8.15;1.60;;;5.00;99.90;;;;;;4862503;29;20112;-92
2022/02/23 05:17:57;;;;;;;16.42;1.60;;;5.00;99.90;;;;;;4862385;29;20025;-92
2022/02/23 05:20:23;;;;;;;13.45;1.58;;;5.00;99.90;;;;;;4862120;29;20153;-90
2022/02/23 05:22:49;;;;;;;15.38;1.65;;;5.00;99.90;;;;;;4862067;29;20086;-91
2022/02/23 05:25:16;;;;;;;12.75;1.50;;;5.10;99.90;;;;;;4862086;29;20030;-91
2022/02/23 05:27:42;;;;;;;15.57;2.13;;;5.10;99.90;;;;;;4862460;29;20021;-92
2022/02/23 05:30:08;;;;;;;16.17;2.35;;;5.10;99.90;;;;;;4862119;29;20527;-91
2022/02/23 05:32:36;;;;;;;10.43;2.50;;;5.10;99.90;;;;;;4862168;29;20029;-91
2022/02/23 05:35:03;;;;;;;7.18;1.40;;;5.20;99.90;;;;;;4862153;29;20063;-91
2022/02/23 05:37:28;;;;;;;17.40;2.10;;;5.20;99.90;;;;;;4862136;29;20062;-92
2022/02/23 05:39:54;;;;;;;19.58;2.85;;;5.20;99.90;;;;;;4862887;29;20026;-91
2022/02/23 05:42:20;;;;;;;19.85;2.15;;;5.30;99.90;;;;;;4862421;29;20057;-91
2022/02/23 05:44:45;;;;;;;9.40;1.50;;;5.30;99.90;;;;;;4862321;29;20143;-91
2022/02/23 05:47:11;;;;;;;14.48;1.73;;;5.30;99.90;;;;;;4862413;29;20025;-91
2022/02/23 05:49:37;;;;;;;11.15;1.63;;;5.30;99.90;;;;;;4863174;29;20119;-92
2022/02/23 05:52:03;;;;;;;19.73;2.00;;;5.30;99.90;;;;;;4862651;29;20045;-92
2022/02/23 05:54:31;;;;;;;10.15;1.75;;;5.30;99.90;;;;;;4862208;29;20048;-91
2022/02/23 05:56:57;;;;;;;6.90;1.38;;;5.30;99.90;;;;;;4867484;29;20078;-92
2022/02/23 05:59:23;;;;;;;14.23;3.47;;;5.30;99.90;;;;;;4862715;29;20025;-91
2022/02/23 06:01:49;;;;;;;13.57;1.60;;;5.30;99.90;;;;;;4863397;29;20025;-90
2022/02/23 06:04:14;;;;;;;13.65;2.17;;;5.30;99.90;;;;;;4861828;29;20046;-90
2022/02/23 06:06:40;;;;;;;13.20;1.65;;;5.30;99.90;;;;;;4861509;29;20026;-90
2022/02/23 06:09:05;;;;;;;13.75;2.25;;;5.30;99.90;;;;;;4861643;29;20474;-92
2022/02/23 06:11:31;;;;;;;9.98;1.35;;;5.30;99.90;;;;;;4861743;29;20017;-91
2022/02/23 06:13:57;;;;;;;14.98;1.60;;;5.40;99.90;;;;;;4861695;29;20471;-92
2022/02/23 06:16:24;;;;;;;11.77;1.67;;;5.40;99.90;;;;;;4860964;29;20129;-93
2022/02/23 06:18:51;;;;;;;22.13;1.85;;;5.40;99.90;;;;;;4861449;29;20483;-89
2022/02/23 06:21:17;;;;;;;13.43;2.08;;;5.40;99.90;;;;;;4861368;29;20038;-93
2022/02/23 06:23:45;;;;;;;13.10;1.70;;;5.40;99.90;;;;;;4861186;29;20050;-92
2022/02/23 06:26:11;;;;;;;14.27;1.95;;;5.50;99.90;;;;;;4860999;29;20026;-91
2022/02/23 06:28:36;;;;;;;12.50;1.85;;;5.50;99.90;;;;;;4861187;29;20032;-92
2022/02/23 06:31:02;;;;;;;9.63;1.30;;;5.50;99.90;;;;;;4861264;29;20088;-91
2022/02/23 06:33:28;;;;;;;7.40;1.50;;;5.40;99.90;;;;;;4860613;29;20429;-91
2022/02/23 06:35:54;;;;;;;9.40;1.42;;;5.40;99.90;;;;;;4862308;29;20025;-92
2022/02/23 06:38:20;;;;;;;10.27;1.48;;;5.50;99.90;;;;;;4860189;29;20036;-92
2022/02/23 06:40:48;;;;;;;11.80;2.03;;;5.40;99.90;;;;;;4860053;29;20132;-91
2022/02/23 06:43:18;;;;;;;10.30;1.10;;;5.40;99.90;;;;;;4855215;29;20033;-92
2022/02/23 06:45:45;;;;;;;13.68;1.90;;;5.40;99.90;;;;;;4859919;29;20034;-91
2022/02/23 06:48:11;;;;;;;6.80;1.55;;;5.40;99.90;;;;;;4860371;29;20098;-91
2022/02/23 06:50:39;;;;;;;11.27;2.53;;;5.40;99.90;;;;;;4845081;29;20037;-91
2022/02/23 06:53:05;;;;;;;9.40;2.85;;;5.40;99.90;;;;;;4859958;29;20132;-92
2022/02/23 06:55:31;;;;;;;14.48;2.13;;;5.40;99.90;;;;;;4860063;29;20026;-93
2022/02/23 06:57:57;;;;;;;12.57;1.67;;;5.40;99.90;;;;;;4859971;29;20552;-93
2022/02/23 07:00:25;;;;;;;12.48;1.80;;;5.40;99.90;;;;;;4859643;29;20117;-90
2022/02/23 07:02:52;;;;;;;13.55;1.95;;;5.40;99.90;;;;;;4859879;29;20117;-92
2022/02/23 07:05:19;;;;;;;12.15;1.77;;;5.30;99.90;;;;;;4860838;29;20555;-93
2022/02/23 07:07:46;;;;;;;7.13;1.52;;;5.30;99.90;;;;;;4863928;29;20066;-92
2022/02/23 07:10:19;;;;;;;10.27;1.90;;;5.30;99.90;;;;;;4863465;29;20056;-91
2022/02/23 07:12:45;;;;;;;8.32;1.52;;;5.30;99.90;;;;;;4863630;29;20037;-91
2022/02/23 07:15:10;;;;;;;12.27;1.67;;;5.30;99.90;;;;;;4863299;29;20087;-92
2022/02/23 07:17:36;;;;;;;12.00;1.38;;;5.30;99.90;;;;;;4864013;29;20045;-92
2022/02/23 07:20:02;;;;;;;13.35;1.92;;;5.30;99.90;;;;;;4863763;29;20185;-92
2022/02/23 07:22:28;;;;;;;6.93;1.10;;;5.30;99.90;;;;;;4863359;29;20097;-92
2022/02/23 07:24:53;;;;;;;10.85;2.25;;;5.30;99.90;;;;;;4863276;29;20025;-92
2022/02/23 07:27:19;;;;;;;11.68;2.35;;;5.30;99.90;;;;;;4863405;29;20476;-90
2022/02/23 07:29:46;;;;;;;9.63;0.98;;;5.30;99.90;;;;;;4863285;29;20141;-92
2022/02/23 07:32:13;;;;;;;11.30;1.30;;;5.30;99.90;;;;;;4863311;29;20025;-91
2022/02/23 07:34:40;;;;;;;13.68;2.72;;;5.40;99.90;;;;;;4863326;29;20029;-92
2022/02/23 07:37:06;;;;;;;31.83;2.72;;;5.40;99.90;;;;;;4863463;29;20026;-92
2022/02/23 07:39:32;;;;;;;9.10;1.10;;;5.40;99.90;;;;;;4863227;29;20108;-91
2022/02/23 07:41:58;;;;;;;6.03;1.02;;;5.40;99.90;;;;;;4862836;29;20030;-92
2022/02/23 07:44:24;;;;;;;11.35;2.00;;;5.50;99.90;;;;;;4862772;29;20041;-90
2022/02/23 07:46:50;;;;;;;9.40;1.33;;;5.50;99.90;;;;;;4863048;29;20025;-91
2022/02/23 07:49:16;;;;;;;15.38;2.80;;;5.50;99.90;;;;;;4864270;29;20037;-91
2022/02/23 07:51:42;;;;;;;18.95;2.65;;;5.50;99.90;;;;;;4862925;29;20503;-91
2022/02/23 07:54:08;;;;;;;16.20;1.80;;;5.50;99.90;;;;;;4863634;29;20030;-89
2022/02/23 07:56:34;;;;;;;10.93;2.65;;;5.50;99.90;;;;;;4863106;29;20033;-91
2022/02/23 07:59:00;;;;;;;14.35;1.90;;;5.50;99.90;;;;;;4863222;29;20035;-89
2022/02/23 08:01:31;;;;;;;17.75;1.88;;;5.50;99.90;;;;;;4864371;29;20080;-91
2022/02/23 08:03:56;;;;;;;;;;;5.50;99.90;;;;;;4872525;29;20045;-88
2022/02/23 08:06:22;;;;;;;9.15;1.98;;;5.50;99.90;;;;;;4885020;29;19907;-91
2022/02/23 08:08:48;;;;;;;11.35;2.25;;;5.50;99.90;;;;;;4882217;29;20033;-90
2022/02/23 08:11:18;;;;;;;18.38;2.03;;;5.50;99.90;;;;;;4874634;29;20166;-91
2022/02/23 08:13:45;;;;;;;4.47;1.10;;;5.50;99.90;;;;;;4873589;29;20093;-91
2022/02/23 08:21:40;;;;;;;12.25;1.30;;;5.60;99.90;;;;;;4863844;29;20541;-91
2022/02/23 08:24:06;;;;;;;10.15;1.70;;;5.60;99.90;;;;;;4864509;29;20042;-93
2022/02/23 08:26:32;;;;;;;10.00;1.98;;;5.70;99.90;;;;;;4862366;29;20037;-92
2022/02/23 08:28:57;;;;;;;11.75;1.83;;;5.70;99.90;;;;;;4862578;29;20036;-91
2022/02/23 08:31:23;;;;;;;10.32;1.88;;;5.80;99.90;;;;;;4862796;29;20064;-91
2022/02/23 08:33:49;;;;;;;12.73;1.27;;;5.80;99.90;;;;;;4862883;29;20038;-92
2022/02/23 08:36:14;;;;;;;12.75;1.45;;;5.80;99.90;;;;;;4862643;29;20025;-92
2022/02/23 08:38:41;;;;;;;9.55;1.77;;;5.90;99.90;;;;;;4862502;29;20041;-90
2022/02/23 08:41:07;;;;;;;11.13;1.95;;;5.90;99.90;;;;;;4862283;29;20031;-90
2022/02/23 08:43:33;;;;;;;12.80;1.65;;;5.90;99.90;;;;;;4863277;29;20034;-92
2022/02/23 08:45:59;;;;;;;12.05;1.70;;;6.00;99.90;;;;;;4862464;29;20035;-91
2022/02/23 08:48:26;;;;;;;13.45;2.20;;;6.00;99.90;;;;;;4862430;29;20037;-92
2022/02/23 08:50:52;;;;;;;8.70;1.48;;;6.00;99.90;;;;;;4862149;29;20041;-92
2022/02/23 08:53:17;;;;;;;8.30;1.67;;;6.10;99.90;;;;;;4862546;29;20037;-92
2022/02/23 08:55:43;;;;;;;12.23;1.63;;;6.10;99.90;;;;;;4862309;29;20384;-92
2022/02/23 08:58:13;;;;;;;9.25;1.20;;;6.20;99.90;;;;;;4862441;29;20033;-92
2022/02/23 09:00:40;;;;;;;12.50;1.35;;;6.20;99.90;;;;;;4861876;29;20036;-92
2022/02/23 09:03:05;;;;;;;7.55;0.98;;;6.30;99.90;;;;;;4861617;29;20050;-92
2022/02/23 09:05:31;;;;;;;4.15;1.35;;;6.30;99.90;;;;;;4861572;29;20025;-92
2022/02/23 09:07:57;;;;;;;7.57;1.23;;;6.30;99.90;;;;;;4861981;29;20579;-91
2022/02/23 09:10:22;;;;;;;9.20;1.55;;;6.40;99.90;;;;;;4861869;29;20089;-91
2022/02/23 09:12:48;;;;;;;7.00;1.40;;;6.40;99.90;;;;;;4862858;29;20033;-90
2022/02/23 09:15:15;;;;;;;6.05;2.00;;;6.50;99.90;;;;;;4861795;29;20511;-92
2022/02/23 09:17:41;;;;;;;12.52;1.27;;;6.60;99.90;;;;;;4861860;29;20201;-90
2022/02/23 09:20:07;;;;;;;7.47;1.45;;;6.60;99.90;;;;;;4861615;29;20033;-91
2022/02/23 09:22:33;;;;;;;8.18;2.15;;;6.60;99.90;;;;;;4861285;29;20033;-90
2022/02/23 09:24:59;;;;;;;2.25;0.80;;;6.70;99.90;;;;;;4861421;29;20106;-90
2022/02/23 09:27:24;;;;;;;5.20;1.25;;;6.70;99.90;;;;;;4861482;29;20085;-92
2022/02/23 09:29:50;;;;;;;8.10;1.55;;;6.80;99.90;;;;;;4864876;29;20062;-89
2022/02/23 09:32:16;;;;;;;6.55;1.25;;;6.80;99.90;;;;;;4864124;29;20044;-91
2022/02/23 09:34:42;;;;;;;9.95;1.50;;;6.90;99.90;;;;;;4871701;29;20143;-90
2022/02/23 09:37:08;;;;;;;7.63;0.93;;;6.90;99.90;;;;;;4861642;29;20045;-92
2022/02/23 09:39:34;;;;;;;7.47;1.30;;;7.00;99.90;;;;;;4862429;29;20025;-92
2022/02/23 09:42:00;;;;;;;7.55;1.70;;;7.10;99.90;;;;;;4860860;29;20061;-91
2022/02/23 09:44:30;;;;;;;13.05;1.52;;;7.10;99.90;;;;;;4861287;29;20037;-91
2022/02/23 09:46:56;;;;;;;11.60;1.50;;;7.20;99.90;;;;;;4861368;29;20032;-90
2022/02/23 09:49:22;;;;;;;16.23;1.70;;;7.40;99.90;;;;;;4861390;29;20042;-90
2022/02/23 09:51:48;;;;;;;3.10;1.02;;;7.50;99.90;;;;;;4860775;29;20050;-90
2022/02/23 09:54:13;;;;;;;4.32;1.80;;;7.70;99.90;;;;;;4860979;29;20061;-89
2022/02/23 09:56:39;;;;;;;5.25;0.88;;;7.80;99.90;;;;;;4861112;29;20025;-90
2022/02/23 09:59:06;;;;;;;9.10;1.30;;;7.90;99.90;;;;;;4861120;29;20040;-91
2022/02/23 10:01:33;;;;;;;3.92;0.93;;;8.10;99.90;;;;;;4860955;29;20120;-91
2022/02/23 10:04:01;;;;;;;7.85;2.13;;;8.30;99.90;;;;;;4860758;29;20408;-91
2022/02/23 10:06:28;;;;;;;10.85;1.70;;;8.40;99.90;;;;;;4860732;29;20029;-91
2022/02/23 10:09:00;;;;;;;5.68;1.40;;;8.60;99.90;;;;;;4860083;29;20061;-91
2022/02/23 10:11:28;;;;;;;8.02;1.50;;;8.80;99.90;;;;;;4860696;29;20380;-92
2022/02/23 10:13:54;;;;;;;4.32;0.93;;;9.00;99.90;;;;;;4860559;29;20025;-91
2022/02/23 10:16:20;;;;;;;3.08;1.48;;;9.20;99.90;;;;;;4860578;29;20384;-92
2022/02/23 10:18:46;;;;;;;5.68;1.25;;;9.20;99.90;;;;;;4859945;29;20029;-92
2022/02/23 10:21:17;;;;;;;3.65;0.80;;;9.30;99.90;;;;;;4859948;29;20064;-91
2022/02/23 10:23:42;;;;;;;8.63;1.13;;;9.40;99.90;;;;;;4860215;29;20515;-91
2022/02/23 10:26:12;;;;;;;4.00;1.10;;;9.30;99.90;;;;;;4860200;29;20034;-92
2022/02/23 10:28:39;;;;;;;17.73;2.25;;;9.30;99.90;;;;;;4860005;29;20029;-92
2022/02/23 10:31:12;;;;;;;5.18;1.08;;;9.30;99.90;;;;;;4859304;29;20112;-91
2022/02/23 10:33:41;;;;;;;7.47;1.10;;;9.10;99.90;;;;;;4859541;29;20037;-90
2022/02/23 10:36:11;;;;;;;5.53;1.58;;;9.00;99.90;;;;;;4859329;29;20021;-89
2022/02/23 10:39:00;;;;;;;5.75;1.20;;;8.90;99.90;;;;;;4860330;29;20026;-91
2022/02/23 10:41:26;;;;;;;3.22;0.77;;;8.80;99.90;;;;;;4859557;29;20029;-89
2022/02/23 10:43:52;;;;;;;10.68;1.30;;;8.80;99.90;;;;;;4860325;29;20044;-90
2022/02/23 10:46:18;;;;;;;7.63;1.20;;;8.70;99.90;;;;;;4860013;29;20026;-90
2022/02/23 10:48:46;;;;;;;6.55;1.00;;;8.60;99.90;;;;;;4859169;29;20081;-90
2022/02/23 10:51:24;;;;;;;8.90;2.83;;;8.60;99.90;;;;;;4859183;29;20124;-90
2022/02/23 10:53:52;;;;;;;4.93;1.10;;;8.70;99.90;;;;;;4859041;29;20070;-90
2022/02/23 10:56:24;;;;;;;1.90;0.82;;;8.90;99.90;;;;;;4859380;29;20037;-90
2022/02/23 10:59:01;;;;;;;10.70;1.65;;;9.10;99.90;;;;;;4859110;29;20149;-90
2022/02/23 11:01:29;;;;;;;6.00;1.02;;;9.30;99.90;;;;;;4860304;29;20037;-89
2022/02/23 11:03:55;;;;;;;3.83;1.10;;;9.40;99.90;;;;;;4861708;29;20140;-89
2022/02/23 11:06:23;;;;;;;3.88;0.68;;;9.30;99.90;;;;;;4861381;29;20120;-90
2022/02/23 11:08:50;;;;;;;5.05;0.65;;;9.20;99.90;;;;;;4858760;29;20033;-90
2022/02/23 11:11:17;;;;;;;3.10;0.60;;;9.20;99.90;;;;;;4859030;29;20581;-89
2022/02/23 11:13:43;;;;;;;6.03;1.00;;;9.10;99.90;;;;;;4859258;29;20030;-89
2022/02/23 11:16:11;;;;;;;4.28;1.00;;;9.00;99.90;;;;;;4861771;29;20494;-89
2022/02/23 11:18:40;;;;;;;4.72;0.77;;;9.00;99.90;;;;;;4861677;29;20048;-89
2022/02/23 11:21:07;;;;;;;3.45;0.70;;;9.00;99.90;;;;;;4859570;29;20038;-90
2022/02/23 11:23:34;;;;;;;6.18;1.08;;;9.00;99.90;;;;;;4859309;29;20042;-89
2022/02/23 11:26:00;;;;;;;4.38;0.60;;;8.90;99.90;;;;;;4874710;29;20029;-90
2022/02/23 11:28:29;;;;;;;4.47;0.77;;;8.90;99.90;;;;;;4874022;29;20257;-89
2022/02/23 11:31:04;;;;;;;12.38;1.02;;;8.90;99.90;;;;;;4872073;29;20050;-89
2022/02/23 11:33:49;;;;;;;3.22;1.27;;;8.90;99.90;;;;;;4868990;29;20041;-90
2022/02/23 11:36:25;;;;;;;5.45;0.60;;;9.00;99.90;;;;;;4866326;29;20102;-91
2022/02/23 11:38:52;;;;;;;2.15;0.68;;;9.00;99.90;;;;;;4864325;29;20093;-90
2022/02/23 11:41:44;;;;;;;7.18;0.70;;;9.00;99.90;;;;;;4862617;29;20071;-90
2022/02/23 11:44:11;;;;;;;2.22;0.50;;;9.10;99.90;;;;;;4855685;29;20093;-90
2022/02/23 11:46:52;;;;;;;2.75;0.57;;;9.10;99.90;;;;;;4859488;29;20396;-89
2022/02/23 11:49:23;;;;;;;2.55;0.60;;;9.30;99.90;;;;;;4857495;29;20030;-91
2022/02/23 11:52:06;;;;;;;5.47;1.00;;;9.50;99.90;;;;;;4859110;29;20050;-90
2022/02/23 11:54:52;;;;;;;3.65;0.93;;;9.70;99.60;;;;;;4862584;29;20479;-89
2022/02/23 11:57:36;;;;;;;4.22;1.10;;;10.00;98.60;;;;;;4861467;29;20025;-91
2022/02/23 12:00:03;;;;;;;1.40;0.55;;;10.20;97.50;;;;;;4862448;29;20061;-89
2022/02/23 12:02:30;;;;;;;3.33;0.60;;;10.50;96.90;;;;;;4862665;29;20029;-90
2022/02/23 12:04:56;;;;;;;1.40;0.60;;;10.90;96.00;;;;;;4862472;29;20073;-90
2022/02/23 12:07:22;;;;;;;1.42;0.40;;;11.30;95.50;;;;;;4862222;29;20345;-89
2022/02/23 12:09:57;;;;;;;4.28;0.90;;;11.70;93.50;;;;;;4862595;29;20475;-90
2022/02/23 12:12:33;;;;;;;4.50;0.65;;;12.00;93.20;;;;;;4862981;29;20048;-92
2022/02/23 12:15:03;;;;;;;4.47;0.68;;;12.20;91.70;;;;;;4861131;29;20030;-92
2022/02/23 12:17:50;;;;;;;0.93;0.63;;;12.40;91.50;;;;;;4862568;29;20523;-90
2022/02/23 12:20:35;;;;;;;1.20;0.60;;;12.40;89.90;;;;;;4860612;29;20036;-92
2022/02/23 12:23:06;;;;;;;5.07;0.65;;;12.30;89.80;;;;;;4859360;29;20510;-91
2022/02/23 12:25:51;;;;;;;0.90;0.40;;;12.30;89.80;;;;;;4872383;29;20037;-90
2022/02/23 12:28:19;;;;;;;1.33;0.45;;;12.40;89.20;;;;;;4869397;29;20490;-91
2022/02/23 12:31:00;;;;;;;2.05;0.60;;;12.40;88.60;;;;;;4863655;29;20093;-90
2022/02/23 12:33:26;;;;;;;5.18;0.93;;;12.50;89.60;;;;;;4863390;29;20044;-93
2022/02/23 12:35:53;;;;;;;2.55;0.50;;;12.70;87.70;;;;;;4866754;29;20081;-91
2022/02/23 12:38:30;;;;;;;1.98;0.40;;;12.70;87.20;;;;;;4862651;29;20065;-89
2022/02/23 12:40:57;;;;;;;2.60;0.70;;;12.80;87.10;;;;;;4862937;29;20030;-90
2022/02/23 12:43:23;;;;;;;2.28;0.50;;;12.90;86.60;;;;;;4862846;29;20491;-90
2022/02/23 12:45:53;;;;;;;1.33;0.73;;;13.00;85.40;;;;;;4863185;29;20075;-90
2022/02/23 12:48:31;;;;;;;2.47;0.80;;;12.90;84.80;;;;;;4862388;29;20049;-90
2022/02/23 12:51:08;;;;;;;2.22;0.25;;;13.00;85.00;;;;;;4862922;29;20042;-91
2022/02/23 12:53:43;;;;;;;1.58;0.40;;;13.00;84.50;;;;;;4865494;29;20181;-91
2022/02/23 12:56:22;;;;;;;4.28;0.68;;;13.10;83.90;;;;;;4867582;29;20097;-90
2022/02/23 12:58:54;;;;;;;1.55;0.40;;;13.10;83.30;;;;;;4863195;29;20022;-90